This is the latest recevied weather packets stored in our database for station/object W3AJR. If no packets are shown the sender has not sent any weather packets the latest 10 day(s).
| Time | Temp. | Humidity | Pressure | Rain* | Wind** | Luminosity | Snow |
|---|---|---|---|---|---|---|---|
| 1777751768 | 16.11° C | 39% | 1011.2 hPa | 0 mm | - | 688 W/m² | - |
| 1777751463 | 16.11° C | 39% | 1011 hPa | 0 mm | - | 777 W/m² | - |
| 1777751161 | 15.56° C | 43% | 1011.3 hPa | 0 mm | - | 343 W/m² | - |
| 1777750856 | 15.56° C | 41% | 1011.4 hPa | 0 mm | - | 390 W/m² | - |
| 1777750554 | 15.56° C | 42% | 1011.4 hPa | 0 mm | - | 451 W/m² | - |
| 1777750250 | 16.67° C | 39% | 1011.5 hPa | 0 mm | - | 451 W/m² | - |
| 1777749946 | 16.67° C | 39% | 1011.5 hPa | 0 mm | - | 440 W/m² | - |
| 1777749644 | 16.11° C | 39% | 1011.6 hPa | 0 mm | - | 669 W/m² | - |
| 1777749340 | 15.56° C | 41% | 1011.7 hPa | 0 mm | - | 413 W/m² | - |
| 1777749038 | 16.11° C | 40% | 1011.9 hPa | 0 mm | - | 495 W/m² | - |
| 1777748736 | 15° C | 44% | 1011.9 hPa | 0 mm | - | 597 W/m² | - |
| 1777748433 | 14.44° C | 44% | 1012 hPa | 0 mm | - | 583 W/m² | - |
| 1777748127 | 15° C | 43% | 1012 hPa | 0 mm | - | 199 W/m² | - |
| 1777747825 | 15° C | 42% | 1012.3 hPa | 0 mm | - | 209 W/m² | - |
| 1777747520 | 15° C | 44% | 1012.4 hPa | 0 mm | - | 546 W/m² | - |
| 1777747216 | 15.56° C | 43% | 1012.6 hPa | 0 mm | - | 269 W/m² | - |
| 1777746913 | 15° C | 40% | 1012.3 hPa | 0 mm | - | 875 W/m² | - |
| 1777746609 | 15° C | 43% | 1012.7 hPa | 0 mm | - | 278 W/m² | - |
| 1777746303 | 15° C | 40% | 1012.8 hPa | 0 mm | - | 348 W/m² | - |
| 1777746000 | 16.11° C | 41% | 1012.8 hPa | 0 mm | - | 667 W/m² | - |
| 1777745698 | 15° C | 42% | 1012.7 hPa | 0 mm | - | 631 W/m² | - |
| 1777745397 | 15° C | 46% | 1012.9 hPa | 0 mm | - | 430 W/m² | - |
| 1777745093 | 14.44° C | 43% | 1013 hPa | 0 mm | - | 340 W/m² | - |
| 1777744790 | 14.44° C | 42% | 1013.2 hPa | 0 mm | - | 353 W/m² | - |
| 1777744484 | 14.44° C | 46% | 1013 hPa | 0 mm | - | 572 W/m² | - |
* Rain latest hour (hover to see other rain measurements)
** Current wind speed in m/s (hover to see current wind gust speed)